Time;durP1;ratioP1;P1;durP2;ratioP2;P2;SDS_P1;SDS_P2;PMS_P1;PMS_P2;Temp;Humidity;BMP_temperature;BMP_pressure;BME280_temperature;BME280_humidity;BME280_pressure;Samples;Min_cycle;Max_cycle;Signal;HPM_P1;HPM_P2
2023/08/01 00:00:17;;;;;;;6.43;2.78;;;;;;;-146.26;100.00;65085.03;5227077;28;20025;-74
2023/08/01 00:02:48;;;;;;;4.38;3.03;;;;;;;-146.26;100.00;65085.03;5231826;28;20059;-73
2023/08/01 00:05:18;;;;;;;7.05;3.00;;;;;;;-146.26;100.00;65085.03;5244849;28;20415;-74
2023/08/01 00:07:49;;;;;;;13.02;3.67;;;;;;;-146.26;100.00;65085.03;5244320;28;20025;-74
2023/08/01 00:10:19;;;;;;;12.18;3.55;;;;;;;-146.26;100.00;65085.03;5244459;28;20119;-75
2023/08/01 00:12:50;;;;;;;9.82;3.53;;;;;;;-146.26;100.00;65085.03;5244846;28;20031;-75
2023/08/01 00:15:20;;;;;;;8.45;3.85;;;;;;;-146.26;100.00;65085.03;5244530;28;20029;-74
2023/08/01 00:17:51;;;;;;;11.30;4.68;;;;;;;-146.26;100.00;65085.03;5244012;28;20028;-74
2023/08/01 00:20:21;;;;;;;8.95;3.88;;;;;;;-146.26;100.00;65085.03;5244468;28;20024;-74
2023/08/01 00:22:51;;;;;;;11.55;4.25;;;;;;;-146.26;100.00;65085.03;5226858;28;20481;-74
2023/08/01 00:25:22;;;;;;;10.68;4.22;;;;;;;-146.26;100.00;65085.03;5244184;28;20074;-74
2023/08/01 00:27:53;;;;;;;16.52;5.03;;;;;;;-146.26;100.00;65085.03;5244126;28;20658;-74
2023/08/01 00:30:23;;;;;;;13.55;4.93;;;;;;;-146.26;100.00;65085.03;5237088;28;20021;-73
2023/08/01 00:32:54;;;;;;;11.43;4.40;;;;;;;-146.26;100.00;65085.03;5238269;28;20545;-73
2023/08/01 00:35:24;;;;;;;9.00;4.30;;;;;;;-146.26;100.00;65085.03;5244353;28;20086;-74
2023/08/01 00:37:55;;;;;;;8.20;4.28;;;;;;;-146.26;100.00;65085.03;5248181;28;20024;-74
2023/08/01 00:40:31;;;;;;;8.90;4.57;;;;;;;-146.26;100.00;65085.03;5226627;28;20121;-73
2023/08/01 00:43:01;;;;;;;11.48;4.95;;;;;;;-146.26;100.00;65085.03;5244136;28;20107;-74
2023/08/01 00:45:32;;;;;;;11.70;5.03;;;;;;;-146.26;100.00;65085.03;5244172;28;20032;-73
2023/08/01 00:48:03;;;;;;;16.30;5.93;;;;;;;-146.26;100.00;65085.03;5225858;28;20020;-73
2023/08/01 00:50:33;;;;;;;11.60;5.75;;;;;;;-146.26;100.00;65085.03;5245092;28;20079;-73
2023/08/01 00:53:05;;;;;;;8.32;5.53;;;;;;;-146.26;100.00;65085.03;5248347;28;20074;-74
2023/08/01 00:55:36;;;;;;;12.57;6.03;;;;;;;-146.26;100.00;65085.03;5229743;28;20717;-73
2023/08/01 00:58:07;;;;;;;14.50;6.22;;;;;;;-146.26;100.00;65085.03;5247876;28;20081;-74
2023/08/01 01:00:39;;;;;;;17.05;6.13;;;;;;;-146.26;100.00;65085.03;5248373;28;20481;-73
2023/08/01 01:03:09;;;;;;;17.58;7.10;;;;;;;-146.26;100.00;65085.03;5248364;28;20085;-73
2023/08/01 01:05:47;;;;;;;15.07;7.00;;;;;;;-146.26;100.00;65085.03;5247867;28;20119;-73
2023/08/01 01:08:18;;;;;;;12.27;6.45;;;;;;;-146.26;100.00;65085.03;5248187;28;20025;-74
2023/08/01 01:10:48;;;;;;;15.90;6.97;;;;;;;-146.26;100.00;65085.03;5247528;28;20508;-74
2023/08/01 01:13:19;;;;;;;17.50;7.65;;;;;;;-146.26;100.00;65085.03;5248431;28;20472;-73
2023/08/01 01:15:49;;;;;;;23.73;7.75;;;;;;;-146.26;100.00;65085.03;5229937;28;20119;-74
2023/08/01 01:18:20;;;;;;;19.23;7.95;;;;;;;-146.26;100.00;65085.03;5247519;28;20038;-73
2023/08/01 01:20:50;;;;;;;21.08;7.68;;;;;;;-146.26;100.00;65085.03;5235408;28;20055;-73
2023/08/01 01:23:21;;;;;;;18.45;8.55;;;;;;;-146.26;100.00;65085.03;5248018;28;20024;-74
2023/08/01 01:25:54;;;;;;;16.63;8.25;;;;;;;-146.26;100.00;65085.03;5247738;28;20081;-74
2023/08/01 01:28:26;;;;;;;15.10;8.57;;;;;;;-146.26;100.00;65085.03;5247833;28;20021;-73
2023/08/01 01:30:57;;;;;;;17.25;8.30;;;;;;;-146.26;100.00;65085.03;5247916;28;20029;-73
2023/08/01 01:33:28;;;;;;;18.23;8.32;;;;;;;-146.26;100.00;65085.03;5263898;28;20036;-73
2023/08/01 01:36:01;;;;;;;21.17;8.98;;;;;;;-146.26;100.00;65085.03;5247922;28;20404;-73
2023/08/01 01:38:31;;;;;;;20.88;9.35;;;;;;;-146.26;100.00;65085.03;5247818;28;20028;-74
2023/08/01 01:41:02;;;;;;;24.05;9.88;;;;;;;-146.26;100.00;65085.03;5247854;28;20079;-73
2023/08/01 01:43:32;;;;;;;23.00;9.25;;;;;;;-146.26;100.00;65085.03;5247676;28;20083;-73
2023/08/01 01:46:02;;;;;;;18.48;8.68;;;;;;;-146.26;100.00;65085.03;5247178;28;20047;-73
2023/08/01 01:48:33;;;;;;;20.70;9.25;;;;;;;-146.26;100.00;65085.03;5247747;28;20031;-72
2023/08/01 01:51:04;;;;;;;18.17;8.63;;;;;;;-146.26;100.00;65085.03;5247556;28;20058;-73
2023/08/01 01:53:35;;;;;;;24.70;9.10;;;;;;;-146.26;100.00;65085.03;5247886;28;20031;-73
2023/08/01 01:56:05;;;;;;;19.65;8.73;;;;;;;-146.26;100.00;65085.03;5246901;28;20162;-72
2023/08/01 01:58:36;;;;;;;19.90;8.90;;;;;;;-146.26;100.00;65085.03;5247360;28;20024;-74
2023/08/01 02:01:06;;;;;;;18.58;9.05;;;;;;;-146.26;100.00;65085.03;5247570;28;20117;-73
2023/08/01 02:03:37;;;;;;;21.50;9.23;;;;;;;-146.26;100.00;65085.03;5246763;28;20032;-73
2023/08/01 02:06:07;;;;;;;20.33;8.88;;;;;;;-146.26;100.00;65085.03;5247046;28;20055;-73
2023/08/01 02:08:38;;;;;;;21.70;9.38;;;;;;;-146.26;100.00;65085.03;5246947;28;20032;-73
2023/08/01 02:11:08;;;;;;;21.80;8.50;;;;;;;-146.26;100.00;65085.03;5247313;28;20541;-73
2023/08/01 02:13:39;;;;;;;22.02;9.38;;;;;;;-146.26;100.00;65085.03;5229471;28;20051;-73
2023/08/01 02:16:09;;;;;;;24.55;9.80;;;;;;;-146.26;100.00;65085.03;5247321;28;20027;-73
2023/08/01 02:18:40;;;;;;;26.13;9.50;;;;;;;-146.26;100.00;65085.03;5246933;28;20039;-73
2023/08/01 02:21:10;;;;;;;26.85;9.48;;;;;;;-146.26;100.00;65085.03;5229191;28;20035;-73
2023/08/01 02:23:43;;;;;;;23.08;9.77;;;;;;;-146.26;100.00;65085.03;5247605;28;20450;-73
2023/08/01 02:26:14;;;;;;;24.85;10.32;;;;;;;-146.26;100.00;65085.03;5246745;28;20028;-73
2023/08/01 02:28:44;;;;;;;24.60;9.63;;;;;;;-146.26;100.00;65085.03;5229265;28;20025;-73
2023/08/01 02:31:16;;;;;;;17.50;9.10;;;;;;;-146.26;100.00;65085.03;5246452;28;20036;-73
2023/08/01 02:33:46;;;;;;;26.95;9.90;;;;;;;-146.26;100.00;65085.03;5247025;28;20060;-73
2023/08/01 02:36:17;;;;;;;20.45;9.40;;;;;;;-146.26;100.00;65085.03;5246061;28;20047;-73
2023/08/01 02:38:47;;;;;;;28.17;10.27;;;;;;;-146.26;100.00;65085.03;5246712;28;20020;-73
2023/08/01 02:41:18;;;;;;;21.17;9.68;;;;;;;-146.26;100.00;65085.03;5246750;28;20025;-73
2023/08/01 02:43:48;;;;;;;30.58;9.88;;;;;;;-146.26;100.00;65085.03;5246668;28;20021;-72
2023/08/01 02:46:19;;;;;;;23.27;10.07;;;;;;;-146.26;100.00;65085.03;5245895;28;20021;-73
2023/08/01 02:48:49;;;;;;;30.23;9.90;;;;;;;-146.26;100.00;65085.03;5246591;28;20019;-73
2023/08/01 02:51:20;;;;;;;25.85;10.32;;;;;;;-146.26;100.00;65085.03;5228641;28;20477;-73
2023/08/01 02:53:50;;;;;;;30.58;10.32;;;;;;;-146.26;100.00;65085.03;5246700;28;20369;-74
2023/08/01 02:56:21;;;;;;;27.15;10.30;;;;;;;-146.26;100.00;65085.03;5245689;28;20028;-74
2023/08/01 02:58:51;;;;;;;27.05;11.00;;;;;;;-146.26;100.00;65085.03;5246027;28;20025;-73
2023/08/01 03:01:22;;;;;;;32.53;12.07;;;;;;;-146.26;100.00;65085.03;5246404;28;20024;-74
2023/08/01 03:03:52;;;;;;;24.83;10.57;;;;;;;-146.26;100.00;65085.03;5246391;28;20024;-73
2023/08/01 03:06:23;;;;;;;24.10;10.82;;;;;;;-146.26;100.00;65085.03;5245891;28;20024;-73
2023/08/01 03:08:53;;;;;;;31.63;11.65;;;;;;;-146.26;100.00;65085.03;5227733;28;20098;-73
2023/08/01 03:11:24;;;;;;;23.10;11.77;;;;;;;-146.26;100.00;65085.03;5246077;28;20544;-73
2023/08/01 03:13:54;;;;;;;31.52;12.02;;;;;;;-146.26;100.00;65085.03;5246014;28;20407;-74
2023/08/01 03:16:25;;;;;;;22.95;11.48;;;;;;;-146.26;100.00;65085.03;5245559;28;20101;-74
2023/08/01 03:18:55;;;;;;;28.17;12.25;;;;;;;-146.26;100.00;65085.03;5245664;28;20033;-73
2023/08/01 03:21:26;;;;;;;33.60;12.25;;;;;;;-146.26;100.00;65085.03;5245453;28;20028;-73
2023/08/01 03:23:57;;;;;;;30.90;13.05;;;;;;;-146.26;100.00;65085.03;5261698;28;20104;-73
2023/08/01 03:26:28;;;;;;;38.53;13.13;;;;;;;-146.26;100.00;65085.03;5245381;28;20036;-73
2023/08/01 03:28:58;;;;;;;32.50;13.18;;;;;;;-146.26;100.00;65085.03;5245698;28;20505;-73
2023/08/01 03:31:29;;;;;;;34.85;12.80;;;;;;;-146.26;100.00;65085.03;5245683;28;20031;-73
2023/08/01 03:33:59;;;;;;;27.20;12.45;;;;;;;-146.26;100.00;65085.03;5245231;28;20150;-73
2023/08/01 03:36:30;;;;;;;29.00;13.65;;;;;;;-146.26;100.00;65085.03;5244964;28;20031;-73
2023/08/01 03:39:01;;;;;;;35.63;13.65;;;;;;;-146.26;100.00;65085.03;5245457;28;20497;-73
2023/08/01 03:41:32;;;;;;;34.42;12.65;;;;;;;-146.26;100.00;65085.03;5245549;28;20477;-73
2023/08/01 03:44:03;;;;;;;28.50;12.57;;;;;;;-146.26;100.00;65085.03;5245627;28;20033;-73
2023/08/01 03:46:34;;;;;;;33.17;13.65;;;;;;;-146.26;100.00;65085.03;5244624;28;20119;-73
2023/08/01 03:49:04;;;;;;;33.33;14.27;;;;;;;-146.26;100.00;65085.03;5245245;28;20115;-73
2023/08/01 03:51:35;;;;;;;32.92;14.50;;;;;;;-146.26;100.00;65085.03;5245579;28;20090;-73
2023/08/01 03:54:06;;;;;;;32.78;13.77;;;;;;;-146.26;100.00;65085.03;5245188;28;20035;-73
2023/08/01 03:56:38;;;;;;;30.98;13.30;;;;;;;-146.26;100.00;65085.03;5244629;28;20374;-73
2023/08/01 03:59:11;;;;;;;33.72;14.75;;;;;;;-146.26;100.00;65085.03;5227028;28;20024;-73
2023/08/01 04:01:41;;;;;;;36.50;14.93;;;;;;;-146.26;100.00;65085.03;5245291;28;20032;-73
2023/08/01 04:04:12;;;;;;;32.63;14.65;;;;;;;-146.26;100.00;65085.03;5244939;28;20020;-73
2023/08/01 04:06:42;;;;;;;36.80;15.55;;;;;;;-146.26;100.00;65085.03;5244578;28;20039;-73
2023/08/01 04:09:13;;;;;;;43.72;15.75;;;;;;;-146.26;100.00;65085.03;5244580;28;20396;-72
2023/08/01 04:11:43;;;;;;;40.50;15.82;;;;;;;-146.26;100.00;65085.03;5227104;28;20392;-72
2023/08/01 04:14:14;;;;;;;40.00;15.65;;;;;;;-146.26;100.00;65085.03;5245053;28;20020;-73
2023/08/01 04:16:44;;;;;;;34.60;15.80;;;;;;;-146.26;100.00;65085.03;5244009;28;20058;-73
2023/08/01 04:19:15;;;;;;;37.15;16.20;;;;;;;-146.26;100.00;65085.03;5244857;28;20031;-73
2023/08/01 04:21:45;;;;;;;31.95;14.65;;;;;;;-146.26;100.00;65085.03;5244571;28;20032;-73
2023/08/01 04:24:16;;;;;;;28.42;13.05;;;;;;;-146.26;100.00;65085.03;5244826;28;20431;-73
2023/08/01 04:26:46;;;;;;;33.97;14.32;;;;;;;-146.26;100.00;65085.03;5244094;28;20032;-73
2023/08/01 04:29:17;;;;;;;38.00;16.05;;;;;;;-146.26;100.00;65085.03;5244976;28;20077;-73
2023/08/01 04:31:48;;;;;;;39.90;15.45;;;;;;;-146.26;100.00;65085.03;5244790;28;20116;-73
2023/08/01 04:34:18;;;;;;;34.35;15.30;;;;;;;-146.26;100.00;65085.03;5244393;28;20029;-73
2023/08/01 04:36:49;;;;;;;32.63;15.15;;;;;;;-146.26;100.00;65085.03;5243789;28;20028;-73
2023/08/01 04:39:19;;;;;;;39.38;15.35;;;;;;;-146.26;100.00;65085.03;5226547;28;20025;-72
2023/08/01 04:41:50;;;;;;;49.75;15.80;;;;;;;-146.26;100.00;65085.03;5244914;28;20443;-73
2023/08/01 04:44:20;;;;;;;41.22;15.27;;;;;;;-146.26;100.00;65085.03;5244751;28;20070;-73
2023/08/01 04:46:51;;;;;;;35.63;15.73;;;;;;;-146.26;100.00;65085.03;5243600;28;20094;-73
2023/08/01 04:49:21;;;;;;;39.88;14.20;;;;;;;-146.26;100.00;65085.03;5215816;28;20041;-73
2023/08/01 04:51:52;;;;;;;36.92;17.05;;;;;;;-146.26;100.00;65085.03;5244380;28;20103;-73
2023/08/01 04:54:22;;;;;;;33.47;15.13;;;;;;;-146.26;100.00;65085.03;5244490;28;20056;-73
2023/08/01 04:56:53;;;;;;;36.55;14.65;;;;;;;-146.26;100.00;65085.03;5243898;28;20024;-73
2023/08/01 04:59:23;;;;;;;36.15;14.32;;;;;;;-146.26;100.00;65085.03;5243820;28;20028;-74
2023/08/01 05:01:53;;;;;;;36.28;14.15;;;;;;;-146.26;100.00;65085.03;5244872;28;20115;-73
2023/08/01 05:04:24;;;;;;;34.92;13.23;;;;;;;-146.26;100.00;65085.03;5244258;28;20067;-73
2023/08/01 05:06:55;;;;;;;40.75;14.07;;;;;;;-146.26;100.00;65085.03;5243861;28;20028;-73
2023/08/01 05:09:25;;;;;;;38.25;13.90;;;;;;;-146.26;100.00;65085.03;5244890;28;20503;-73
2023/08/01 05:11:55;;;;;;;35.53;12.95;;;;;;;-146.26;100.00;65085.03;5243926;28;20040;-73
2023/08/01 05:14:26;;;;;;;37.90;13.73;;;;;;;-146.26;100.00;65085.03;5226476;28;20012;-73
2023/08/01 05:16:56;;;;;;;36.55;13.13;;;;;;;-146.26;100.00;65085.03;5243487;28;20083;-73
2023/08/01 05:19:27;;;;;;;26.90;12.25;;;;;;;-146.26;100.00;65085.03;5244346;28;20032;-74
2023/08/01 05:21:57;;;;;;;31.67;12.98;;;;;;;-146.26;100.00;65085.03;5244302;28;20550;-73
2023/08/01 05:24:28;;;;;;;29.27;12.80;;;;;;;-146.26;100.00;65085.03;5243952;28;20403;-73
2023/08/01 05:26:58;;;;;;;33.70;12.43;;;;;;;-146.26;100.00;65085.03;5243675;28;20024;-73
2023/08/01 05:29:29;;;;;;;24.60;11.80;;;;;;;-146.26;100.00;65085.03;5244088;28;20025;-72
2023/08/01 05:31:59;;;;;;;30.65;11.60;;;;;;;-146.26;100.00;65085.03;5244257;28;20022;-74
2023/08/01 05:34:30;;;;;;;34.13;12.13;;;;;;;-146.26;100.00;65085.03;5243984;28;20032;-74
2023/08/01 05:37:00;;;;;;;42.65;13.60;;;;;;;-146.26;100.00;65085.03;5243385;28;20035;-74
2023/08/01 05:39:30;;;;;;;35.47;12.60;;;;;;;-146.26;100.00;65085.03;5247457;28;20036;-73
2023/08/01 05:42:01;;;;;;;32.22;12.18;;;;;;;-146.26;100.00;65085.03;5230213;28;20020;-72
2023/08/01 05:44:32;;;;;;;27.25;11.23;;;;;;;-146.26;100.00;65085.03;5247772;28;20028;-73
2023/08/01 05:47:02;;;;;;;34.60;11.85;;;;;;;-146.26;100.00;65085.03;5247266;28;20086;-73
2023/08/01 05:49:33;;;;;;;31.33;11.35;;;;;;;-146.26;100.00;65085.03;5247518;28;20067;-73
2023/08/01 05:52:04;;;;;;;32.33;11.70;;;;;;;-146.26;100.00;65085.03;5248055;28;20108;-74
2023/08/01 05:54:35;;;;;;;28.15;11.50;;;;;;;-146.26;100.00;65085.03;5247564;28;20524;-74
2023/08/01 05:57:06;;;;;;;32.25;11.80;;;;;;;-146.26;100.00;65085.03;5247380;28;20103;-72
2023/08/01 05:59:36;;;;;;;32.10;11.65;;;;;;;-146.26;100.00;65085.03;5215761;28;20024;-73
2023/08/01 06:02:07;;;;;;;25.00;10.93;;;;;;;-146.26;100.00;65085.03;5247617;28;20111;-74
2023/08/01 06:04:38;;;;;;;22.63;10.20;;;;;;;-146.26;100.00;65085.03;5247450;28;20094;-73
2023/08/01 06:07:09;;;;;;;24.70;10.48;;;;;;;-146.26;100.00;65085.03;5246862;28;20025;-74
2023/08/01 06:09:39;;;;;;;25.00;9.82;;;;;;;-146.26;100.00;65085.03;5247220;28;20024;-75
2023/08/01 06:12:10;;;;;;;31.33;12.15;;;;;;;-146.26;100.00;65085.03;5246612;28;20063;-75
2023/08/01 06:14:40;;;;;;;25.50;10.20;;;;;;;-146.26;100.00;65085.03;5229481;28;20032;-74
2023/08/01 06:17:11;;;;;;;33.55;9.88;;;;;;;-146.26;100.00;65085.03;5246311;28;20064;-73
2023/08/01 06:19:41;;;;;;;21.55;9.30;;;;;;;-146.26;100.00;65085.03;5236861;28;20021;-75
2023/08/01 06:22:12;;;;;;;41.08;11.77;;;;;;;-146.26;100.00;65085.03;5235310;28;20028;-75
2023/08/01 06:24:42;;;;;;;25.80;9.60;;;;;;;-146.26;100.00;65085.03;5244811;28;20032;-75
2023/08/01 06:27:14;;;;;;;19.98;8.90;;;;;;;-146.26;100.00;65085.03;5245144;28;20404;-75
2023/08/01 06:29:45;;;;;;;25.50;10.05;;;;;;;-146.26;100.00;65085.03;5245603;28;20027;-75
2023/08/01 06:32:15;;;;;;;24.33;9.00;;;;;;;-146.26;100.00;65085.03;5246005;28;20025;-75
2023/08/01 06:34:46;;;;;;;22.63;9.40;;;;;;;-146.26;100.00;65085.03;5244942;28;20028;-74
2023/08/01 06:37:17;;;;;;;26.23;9.25;;;;;;;-146.26;100.00;65085.03;5244209;28;20064;-75
2023/08/01 06:39:47;;;;;;;28.23;10.25;;;;;;;-146.26;100.00;65085.03;5245295;28;20497;-75
2023/08/01 06:42:18;;;;;;;26.10;10.38;;;;;;;-146.26;100.00;65085.03;5245494;28;20032;-75
2023/08/01 06:44:48;;;;;;;24.23;9.75;;;;;;;-146.26;100.00;65085.03;5244953;28;20070;-75
2023/08/01 06:49:40;;;;;;;22.42;8.73;;;;;;;19.03;100.00;100076.53;5260815;28;20582;-73
2023/08/01 06:52:11;;;;;;;20.30;8.80;;;;;;;19.40;100.00;100068.81;5240081;28;20032;-73
2023/08/01 06:54:41;;;;;;;19.90;7.90;;;;;;;19.49;100.00;100063.00;5239834;28;20276;-73
2023/08/01 06:57:12;;;;;;;20.92;8.60;;;;;;;19.25;100.00;100064.97;5238545;28;20517;-73
2023/08/01 06:59:42;;;;;;;14.00;8.02;;;;;;;19.09;100.00;100063.84;5219082;28;20029;-73
2023/08/01 07:02:13;;;;;;;22.63;8.30;;;;;;;18.95;100.00;100071.44;5234448;28;20507;-73
2023/08/01 07:04:44;;;;;;;20.13;8.35;;;;;;;18.88;100.00;100070.75;5239963;28;20131;-73
2023/08/01 07:07:14;;;;;;;21.17;9.90;;;;;;;18.69;100.00;100059.22;5239791;28;20291;-73
2023/08/01 07:09:45;;;;;;;19.75;9.00;;;;;;;19.11;100.00;100067.13;5229000;28;20021;-73
2023/08/01 07:12:15;;;;;;;20.80;8.75;;;;;;;19.31;100.00;100069.44;5221592;28;20025;-73
2023/08/01 07:14:46;;;;;;;17.42;8.35;;;;;;;19.38;100.00;100072.84;5230815;28;20470;-73
2023/08/01 07:17:16;;;;;;;17.25;8.55;;;;;;;19.32;100.00;100068.38;5239018;28;20021;-73
2023/08/01 07:19:47;;;;;;;18.02;7.80;;;;;;;19.10;100.00;100079.91;5239817;28;20029;-73
2023/08/01 07:22:17;;;;;;;22.75;8.43;;;;;;;18.97;100.00;100082.06;5239690;28;20372;-73
2023/08/01 07:24:53;;;;;;;20.33;8.50;;;;;;;18.84;100.00;100077.72;5239174;28;20115;-73
2023/08/01 07:27:24;;;;;;;19.77;8.20;;;;;;;18.75;100.00;100087.31;5238558;28;20032;-73
2023/08/01 07:29:54;;;;;;;28.10;8.73;;;;;;;18.54;100.00;100086.84;5239263;28;20017;-73
2023/08/01 07:32:24;;;;;;;17.95;7.43;;;;;;;18.41;100.00;100086.22;5239661;28;20078;-73
2023/08/01 07:34:55;;;;;;;16.92;7.32;;;;;;;18.49;100.00;100085.88;5239041;28;20240;-73
2023/08/01 07:37:28;;;;;;;26.58;8.65;;;;;;;18.42;100.00;100079.72;5239363;28;20028;-73
2023/08/01 07:39:59;;;;;;;23.55;7.43;;;;;;;18.66;100.00;100089.53;5239181;28;20111;-73
2023/08/01 07:42:29;;;;;;;17.13;7.07;;;;;;;18.81;100.00;100087.19;5240441;28;20100;-73
2023/08/01 07:45:00;;;;;;;19.98;7.40;;;;;;;19.07;100.00;100098.59;5240441;28;20024;-73
2023/08/01 07:47:30;;;;;;;14.93;7.00;;;;;;;19.34;100.00;100096.97;5242886;28;20035;-73
2023/08/01 07:50:01;;;;;;;18.83;7.18;;;;;;;19.38;100.00;100092.72;5260735;28;20052;-73
2023/08/01 07:52:31;;;;;;;19.20;6.55;;;;;;;19.34;100.00;100094.25;5259921;28;20020;-73
2023/08/01 07:55:02;;;;;;;14.25;6.68;;;;;;;19.26;100.00;100093.81;5261266;28;20020;-73
2023/08/01 07:57:32;;;;;;;19.15;7.25;;;;;;;19.32;100.00;100101.81;5260644;28;20474;-73
2023/08/01 08:00:03;;;;;;;15.65;6.75;;;;;;;19.24;100.00;100087.81;5252570;28;20021;-74
2023/08/01 08:02:34;;;;;;;22.45;6.78;;;;;;;19.37;100.00;100096.47;5247125;28;20039;-73
2023/08/01 08:05:05;;;;;;;17.80;6.72;;;;;;;19.25;100.00;100103.88;5247033;28;20021;-73
2023/08/01 08:07:37;;;;;;;19.02;6.25;;;;;;;19.34;100.00;100090.72;5246592;28;20060;-73
2023/08/01 08:10:08;;;;;;;13.30;6.15;;;;;;;19.43;100.00;100097.44;5245988;28;20043;-73
2023/08/01 08:12:38;;;;;;;17.90;6.72;;;;;;;19.34;100.00;100107.88;5234254;28;20101;-73
2023/08/01 08:15:09;;;;;;;16.33;6.75;;;;;;;19.38;100.00;100103.59;5246288;28;20020;-73
2023/08/01 08:17:39;;;;;;;17.10;5.90;;;;;;;19.40;100.00;100109.59;5235676;28;20025;-73
2023/08/01 08:20:10;;;;;;;15.27;6.00;;;;;;;19.38;100.00;100109.03;5229045;28;20020;-73
2023/08/01 08:22:40;;;;;;;22.35;6.38;;;;;;;19.59;100.00;100104.84;5246964;28;20021;-73
2023/08/01 08:25:11;;;;;;;15.93;6.10;;;;;;;19.56;100.00;100105.28;5246251;28;20029;-73
2023/08/01 08:27:41;;;;;;;19.27;5.90;;;;;;;19.61;100.00;100105.41;5245565;28;20065;-73
2023/08/01 08:30:12;;;;;;;12.85;5.60;;;;;;;20.39;100.00;100097.50;5232669;28;20016;-73
2023/08/01 08:32:43;;;;;;;15.98;6.15;;;;;;;21.14;100.00;100099.66;5246683;28;20024;-74
2023/08/01 08:35:13;;;;;;;14.43;5.82;;;;;;;21.72;100.00;100095.41;5246277;28;20028;-73
2023/08/01 08:37:44;;;;;;;20.35;5.50;;;;;;;22.38;100.00;100089.72;5236702;28;20078;-74
2023/08/01 08:40:14;;;;;;;15.30;5.00;;;;;;;22.47;100.00;100090.88;5246277;28;20040;-73
2023/08/01 08:42:46;;;;;;;10.38;4.93;;;;;;;21.95;100.00;100086.06;5245958;28;20035;-74
2023/08/01 08:45:19;;;;;;;13.02;5.22;;;;;;;21.85;100.00;100101.53;5246366;28;20032;-74
2023/08/01 08:47:55;;;;;;;9.63;4.95;;;;;;;22.38;100.00;100106.09;5246004;28;20156;-74
2023/08/01 08:50:28;;;;;;;13.45;4.70;;;;;;;22.42;100.00;100109.13;5245757;28;20029;-74
2023/08/01 08:52:59;;;;;;;12.90;5.10;;;;;;;22.16;100.00;100108.94;5246003;28;20020;-73
2023/08/01 08:55:31;;;;;;;11.27;4.50;;;;;;;22.28;100.00;100103.28;5245896;28;20028;-74
2023/08/01 08:58:02;;;;;;;14.07;4.80;;;;;;;21.86;100.00;100104.00;5245692;28;20021;-74
2023/08/01 09:00:34;;;;;;;10.52;4.43;;;;;;;21.62;100.00;100098.03;5245667;28;20036;-74
2023/08/01 09:03:05;;;;;;;15.18;4.80;;;;;;;21.94;100.00;100100.81;5245631;28;20143;-74
2023/08/01 09:05:48;;;;;;;12.98;4.80;;;;;;;22.00;100.00;100100.84;5242434;28;20509;-74
2023/08/01 09:08:20;;;;;;;12.23;4.95;;;;;;;22.29;100.00;100104.13;5237329;28;20029;-74
2023/08/01 09:10:51;;;;;;;10.50;4.45;;;;;;;22.67;100.00;100098.38;5227873;28;20317;-73
2023/08/01 09:13:21;;;;;;;10.82;4.90;;;;;;;22.85;100.00;100105.31;5237926;28;20040;-74
2023/08/01 09:15:53;;;;;;;12.00;4.63;;;;;;;23.20;100.00;100112.91;5245204;28;20028;-74
2023/08/01 09:18:23;;;;;;;9.23;4.63;;;;;;;23.62;100.00;100111.94;5245433;28;20028;-74
2023/08/01 09:20:54;;;;;;;11.27;4.50;;;;;;;23.49;100.00;100110.56;5245491;28;20024;-73
2023/08/01 09:23:24;;;;;;;7.32;3.28;;;;;;;22.73;100.00;100113.72;5245443;28;20032;-75
2023/08/01 09:25:56;;;;;;;10.02;4.13;;;;;;;22.60;100.00;100096.97;5244942;28;20028;-74
2023/08/01 09:28:26;;;;;;;9.75;4.13;;;;;;;22.46;100.00;100104.81;5245195;28;20427;-74
2023/08/01 09:30:57;;;;;;;10.40;3.78;;;;;;;22.28;100.00;100107.94;5245453;28;20166;-74
2023/08/01 09:33:39;;;;;;;9.75;3.97;;;;;;;22.55;100.00;100105.16;5245488;28;20310;-74
2023/08/01 09:36:09;;;;;;;8.90;3.85;;;;;;;22.79;100.00;100108.28;5227805;28;20041;-74
2023/08/01 09:38:40;;;;;;;8.63;3.92;;;;;;;23.27;100.00;100110.72;5239649;28;20089;-74
2023/08/01 09:41:17;;;;;;;10.13;4.03;;;;;;;23.35;100.00;100109.41;5244052;28;20466;-73
2023/08/01 09:43:51;;;;;;;12.18;4.10;;;;;;;23.85;100.00;100099.69;5244487;28;20114;-74
2023/08/01 09:46:22;;;;;;;11.10;4.40;;;;;;;24.19;100.00;100107.38;5242646;28;20107;-72
2023/08/01 09:48:52;;;;;;;9.60;4.25;;;;;;;24.08;100.00;100105.72;5241935;28;20024;-72
2023/08/01 09:51:23;;;;;;;8.63;4.15;;;;;;;23.68;100.00;100101.84;5242330;28;20031;-72
2023/08/01 09:53:56;;;;;;;12.48;4.20;;;;;;;23.43;100.00;100105.31;5244035;28;20032;-72
2023/08/01 09:56:27;;;;;;;9.43;4.65;;;;;;;23.22;100.00;100101.69;5243108;28;20036;-72
2023/08/01 09:59:00;;;;;;;10.27;4.68;;;;;;;23.34;100.00;100096.78;5243421;28;20020;-72
2023/08/01 10:01:33;;;;;;;13.18;4.00;;;;;;;23.38;100.00;100100.66;5243299;28;20094;-72
2023/08/01 10:04:04;;;;;;;10.07;5.10;;;;;;;23.61;100.00;100106.75;5242508;28;20016;-72
2023/08/01 10:06:38;;;;;;;9.77;4.85;;;;;;;23.28;100.00;100106.09;5242720;28;20210;-72
2023/08/01 10:09:10;;;;;;;12.88;4.75;;;;;;;23.00;100.00;100105.44;5243412;28;20025;-72
2023/08/01 10:11:42;;;;;;;8.85;5.57;;;;;;;23.10;100.00;100101.94;5243174;28;20029;-72
2023/08/01 10:14:13;;;;;;;8.05;4.90;;;;;;;23.23;100.00;100109.63;5243953;28;20017;-73
2023/08/01 10:16:45;;;;;;;10.77;6.03;;;;;;;23.11;100.00;100114.50;5228331;28;20027;-73
2023/08/01 10:19:17;;;;;;;9.70;4.80;;;;;;;23.58;100.00;100124.50;5223185;28;20056;-73
2023/08/01 10:21:49;;;;;;;14.60;4.50;;;;;;;23.81;100.00;100117.75;5237640;28;20028;-73
2023/08/01 10:24:19;;;;;;;12.75;4.75;;;;;;;23.52;100.00;100120.94;5242761;28;20024;-73
2023/08/01 10:26:50;;;;;;;9.57;3.83;;;;;;;23.25;100.00;100118.41;5242643;28;20469;-73
2023/08/01 10:29:20;;;;;;;10.05;4.05;;;;;;;23.13;100.00;100125.19;5243139;28;20031;-73
2023/08/01 10:31:54;;;;;;;9.63;3.08;;;;;;;23.19;100.00;100127.69;5229904;28;20029;-73
2023/08/01 10:34:24;;;;;;;10.80;3.33;;;;;;;23.21;100.00;100125.50;5242943;28;20432;-73
2023/08/01 10:36:58;;;;;;;9.35;3.15;;;;;;;23.35;100.00;100125.81;5242243;28;20021;-73
2023/08/01 10:39:29;;;;;;;12.32;3.47;;;;;;;23.24;100.00;100118.66;5242897;28;20420;-73
2023/08/01 10:42:02;;;;;;;8.00;3.25;;;;;;;23.39;100.00;100120.63;5241958;28;20082;-73
2023/08/01 10:44:34;;;;;;;8.38;3.30;;;;;;;23.43;100.00;100125.28;5243340;28;20016;-73
2023/08/01 10:47:05;;;;;;;7.22;3.30;;;;;;;23.25;100.00;100115.66;5242418;28;20104;-73
2023/08/01 10:49:37;;;;;;;5.65;2.83;;;;;;;23.52;100.00;100125.59;5242728;28;20118;-73
2023/08/01 10:52:27;;;;;;;7.50;3.15;;;;;;;23.04;100.00;100122.13;5243129;28;20047;-73
2023/08/01 10:54:59;;;;;;;7.82;3.33;;;;;;;23.39;100.00;100124.19;5242709;28;20070;-73
2023/08/01 10:57:31;;;;;;;6.90;2.58;;;;;;;23.50;100.00;100134.09;5229408;28;20071;-73
2023/08/01 11:02:52;;;;;;;13.75;3.33;;;;;;;23.52;100.00;100147.50;5237703;28;20020;-73
2023/08/01 11:05:23;;;;;;;6.32;2.95;;;;;;;23.71;100.00;100147.88;5243272;28;20107;-73
2023/08/01 11:07:56;;;;;;;7.55;3.13;;;;;;;23.73;100.00;100153.88;5242579;28;20020;-73
2023/08/01 11:10:28;;;;;;;9.55;3.67;;;;;;;23.46;100.00;100149.41;5240183;28;20020;-73
2023/08/01 11:12:59;;;;;;;8.18;2.97;;;;;;;23.36;100.00;100157.56;5248919;28;20073;-73
2023/08/01 11:15:30;;;;;;;10.07;3.05;;;;;;;23.33;100.00;100154.53;5229970;28;20023;-73
2023/08/01 11:18:00;;;;;;;9.65;3.30;;;;;;;23.36;100.00;100146.63;5240583;28;20016;-73
2023/08/01 11:20:31;;;;;;;8.80;2.78;;;;;;;23.41;100.00;100151.31;5242979;28;20466;-73
2023/08/01 11:23:01;;;;;;;5.28;3.03;;;;;;;23.34;100.00;100140.56;5243469;28;20024;-73
2023/08/01 11:25:33;;;;;;;10.65;3.17;;;;;;;23.23;100.00;100149.84;5242830;28;20040;-73